createdAt,value
2018-04-18T00:00:15.897Z,60.60
2018-04-18T00:02:42.935Z,67.70
2018-04-18T00:05:10.659Z,67.00
2018-04-18T00:07:37.641Z,71.30
2018-04-18T00:10:04.667Z,73.70
2018-04-18T00:12:31.654Z,76.40
2018-04-18T00:14:58.643Z,75.20
2018-04-18T00:17:25.682Z,76.30
2018-04-18T00:19:53.521Z,75.90
2018-04-18T00:24:48.115Z,79.40
2018-04-18T00:27:18.880Z,77.30
2018-04-18T00:29:45.862Z,76.10
2018-04-18T00:32:12.889Z,75.80
2018-04-18T00:34:39.876Z,74.40
2018-04-18T00:37:06.864Z,73.00
2018-04-18T00:42:12.362Z,75.00
2018-04-18T00:44:39.413Z,75.00
2018-04-18T00:47:06.398Z,74.30
2018-04-18T00:49:33.634Z,74.00
2018-04-18T00:52:00.644Z,74.90
2018-04-18T00:54:27.635Z,75.50
2018-04-18T00:56:54.648Z,76.70
2018-04-18T00:59:21.670Z,75.10
2018-04-18T01:01:48.659Z,75.10
2018-04-18T01:04:15.690Z,77.00
2018-04-18T01:06:42.707Z,77.20
2018-04-18T01:09:09.695Z,76.50
2018-04-18T01:11:36.679Z,76.70
2018-04-18T01:14:03.699Z,77.30
2018-04-18T01:16:30.687Z,77.40
2018-04-18T01:18:57.675Z,76.60
2018-04-18T01:23:51.774Z,74.30
2018-04-18T01:26:18.775Z,74.70
2018-04-18T01:28:46.643Z,75.70
2018-04-18T01:31:13.651Z,76.70
2018-04-18T01:33:40.624Z,78.10
2018-04-18T01:36:07.642Z,78.20
2018-04-18T01:38:34.624Z,80.40
2018-04-18T01:41:02.006Z,83.90
2018-04-18T01:43:29.033Z,86.90
2018-04-18T01:45:56.025Z,87.50
2018-04-18T01:48:23.009Z,87.60
2018-04-18T01:50:50.036Z,88.30
2018-04-18T01:53:18.979Z,87.50
2018-04-18T01:55:45.962Z,86.90
2018-04-18T01:58:12.988Z,86.70
2018-04-18T02:03:07.045Z,86.30
2018-04-18T02:08:12.528Z,86.80
2018-04-18T02:10:39.560Z,88.10
2018-04-18T02:13:06.566Z,88.10
2018-04-18T02:15:33.568Z,88.20
2018-04-18T02:18:00.621Z,87.70
2018-04-18T02:22:54.736Z,86.20
2018-04-18T02:25:21.759Z,85.50
2018-04-18T02:27:48.765Z,86.60
2018-04-18T02:30:15.762Z,86.10
2018-04-18T02:32:42.796Z,85.60
2018-04-18T02:35:09.786Z,85.70
2018-04-18T02:37:36.783Z,86.70
2018-04-18T02:40:03.818Z,85.40
2018-04-18T02:42:30.809Z,85.70
2018-04-18T02:44:57.795Z,86.10
2018-04-18T02:47:24.829Z,87.40
2018-04-18T02:49:52.760Z,86.30
2018-04-18T02:52:19.738Z,86.70
2018-04-18T02:54:46.767Z,85.10
2018-04-18T02:57:13.756Z,84.20
2018-04-18T02:59:40.750Z,83.80
2018-04-18T03:02:07.795Z,84.50
2018-04-18T03:04:34.785Z,85.40
2018-04-18T03:07:01.776Z,84.70
2018-04-18T03:09:28.803Z,84.40
2018-04-18T03:11:55.788Z,85.50
2018-04-18T03:14:22.773Z,84.80
2018-04-18T03:16:50.614Z,85.20
2018-04-18T03:21:49.570Z,85.30
2018-04-18T03:24:17.081Z,84.30
2018-04-18T03:26:44.076Z,85.60
2018-04-18T03:29:11.062Z,85.50
2018-04-18T03:31:38.094Z,85.00
2018-04-18T03:36:46.550Z,87.20
2018-04-18T03:39:13.704Z,86.60
2018-04-18T03:41:40.528Z,85.60
2018-04-18T03:44:07.562Z,87.00
2018-04-18T03:46:35.373Z,87.70
2018-04-18T03:49:02.363Z,87.60
2018-04-18T03:51:29.377Z,89.10
2018-04-18T03:53:56.362Z,88.70
2018-04-18T03:56:23.349Z,89.40
2018-04-18T03:58:50.687Z,89.30
2018-04-18T04:01:17.619Z,89.20
2018-04-18T04:03:44.617Z,89.20
2018-04-18T04:06:13.579Z,90.00
2018-04-18T04:11:07.666Z,91.50
2018-04-18T04:13:34.679Z,91.40
2018-04-18T04:16:01.672Z,91.20
2018-04-18T04:18:40.562Z,91.30
2018-04-18T04:21:22.992Z,91.80
2018-04-18T04:24:01.897Z,92.60
2018-04-18T04:28:51.869Z,93.00
2018-04-18T04:31:19.347Z,93.90
2018-04-18T04:33:46.334Z,95.10
2018-04-18T04:36:13.321Z,94.60
2018-04-18T04:38:40.335Z,95.30
2018-04-18T04:41:07.311Z,95.70
2018-04-18T04:43:34.303Z,95.80
2018-04-18T04:46:01.346Z,96.10
2018-04-18T04:48:28.328Z,95.80
2018-04-18T04:50:55.319Z,96.10
2018-04-18T04:53:22.339Z,96.00
2018-04-18T04:55:49.321Z,96.30
2018-04-18T04:58:16.329Z,96.50
2018-04-18T05:00:43.342Z,98.00
2018-04-18T05:03:10.365Z,99.10
2018-04-18T05:05:37.361Z,99.90
2018-04-18T05:08:06.029Z,99.90
2018-04-18T05:10:33.072Z,99.80
2018-04-18T05:13:00.080Z,98.60
2018-04-18T05:20:21.338Z,99.90
2018-04-18T05:22:48.369Z,99.90
2018-04-18T05:25:15.355Z,99.90
2018-04-18T05:27:42.348Z,99.90
2018-04-18T05:32:36.458Z,99.90
2018-04-18T05:35:03.453Z,99.90
2018-04-18T05:37:30.481Z,99.90
2018-04-18T05:39:57.479Z,99.90
2018-04-18T05:44:51.589Z,99.90
2018-04-18T05:47:18.586Z,99.90
2018-04-18T05:49:45.580Z,99.60
2018-04-18T05:54:53.066Z,99.20
2018-04-18T05:57:21.050Z,98.90
2018-04-18T05:59:49.001Z,99.50
2018-04-18T06:02:16.000Z,99.90
2018-04-18T06:04:43.296Z,99.30
2018-04-18T06:07:10.287Z,99.20
2018-04-18T06:09:37.290Z,98.50
2018-04-18T06:12:04.312Z,99.00
2018-04-18T06:14:31.329Z,98.10
2018-04-18T06:16:58.581Z,97.00
2018-04-18T06:19:25.640Z,96.30
2018-04-18T06:21:52.615Z,97.80
2018-04-18T06:24:19.613Z,95.80
2018-04-18T06:26:47.581Z,94.20
2018-04-18T06:29:14.583Z,93.30
2018-04-18T06:34:10.555Z,94.20
2018-04-18T06:36:37.550Z,93.20
2018-04-18T06:39:05.313Z,94.40
2018-04-18T06:43:59.434Z,90.50
2018-04-18T06:46:26.436Z,92.90
2018-04-18T06:48:53.460Z,93.40
2018-04-18T06:51:20.480Z,90.60
2018-04-18T06:53:47.473Z,89.00
2018-04-18T06:56:14.488Z,93.30
2018-04-18T06:58:41.485Z,88.00
2018-04-18T07:01:08.507Z,88.90
2018-04-18T07:03:35.538Z,85.30
2018-04-18T07:06:02.552Z,89.60
2018-04-18T07:08:29.562Z,89.30
2018-04-18T07:13:35.410Z,86.40
2018-04-18T07:16:02.431Z,83.40
2018-04-18T07:18:29.428Z,82.80
2018-04-18T07:20:56.433Z,79.40
2018-04-18T07:23:23.455Z,82.30
2018-04-18T07:25:50.461Z,81.90
2018-04-18T07:28:17.461Z,78.30
2018-04-18T07:30:44.472Z,74.30
2018-04-18T07:33:11.455Z,67.00
2018-04-18T07:35:39.389Z,59.20
2018-04-18T07:38:06.402Z,57.60
2018-04-18T07:43:00.942Z,56.60
2018-04-18T07:45:28.448Z,56.40
2018-04-18T07:47:56.941Z,52.80
2018-04-18T07:50:23.945Z,54.70
2018-04-18T07:52:50.996Z,53.80
2018-04-18T07:55:22.292Z,51.20
2018-04-18T07:57:45.840Z,54.50
2018-04-18T08:00:12.876Z,46.80
2018-04-18T08:02:39.896Z,50.40
2018-04-18T08:05:06.885Z,48.50
2018-04-18T08:07:33.930Z,44.10
2018-04-18T08:10:00.968Z,46.70
2018-04-18T08:12:27.931Z,47.00
2018-04-18T08:17:28.843Z,44.50
2018-04-18T08:19:55.880Z,45.60
2018-04-18T08:22:23.705Z,41.10
2018-04-18T08:24:50.717Z,42.20
2018-04-18T08:27:17.771Z,38.30
2018-04-18T08:29:44.765Z,39.00
2018-04-18T08:32:11.768Z,37.90
2018-04-18T08:34:38.790Z,39.70
2018-04-18T08:39:44.289Z,38.20
2018-04-18T08:42:11.289Z,39.00
2018-04-18T08:44:38.293Z,35.70
2018-04-18T08:47:05.314Z,38.20
2018-04-18T08:51:59.384Z,37.70
2018-04-18T08:54:27.362Z,36.20
2018-04-18T08:59:22.867Z,37.10
2018-04-18T09:01:49.897Z,37.50
2018-04-18T09:04:16.883Z,36.10
2018-04-18T09:09:10.967Z,33.00
2018-04-18T09:11:37.952Z,33.10
2018-04-18T09:14:04.954Z,34.50
2018-04-18T09:16:31.963Z,34.40
2018-04-18T09:18:58.962Z,35.60
2018-04-18T09:21:25.932Z,33.60
2018-04-18T09:23:52.966Z,33.10
2018-04-18T09:26:19.961Z,32.60
2018-04-18T09:28:46.961Z,32.00
2018-04-18T09:31:14.315Z,31.30
2018-04-18T09:33:41.340Z,28.90
2018-04-18T09:36:08.301Z,29.60
2018-04-18T09:38:35.326Z,28.20
2018-04-18T09:41:03.281Z,32.30
2018-04-18T09:43:30.269Z,29.20
2018-04-18T09:45:58.110Z,28.40
2018-04-18T09:48:25.095Z,28.40
2018-04-18T09:50:52.086Z,26.80
2018-04-18T09:58:24.726Z,28.40
2018-04-18T10:00:51.683Z,25.70
2018-04-18T10:03:18.664Z,26.90
2018-04-18T10:05:46.633Z,25.80
2018-04-18T10:08:13.629Z,26.00
2018-04-18T10:10:40.616Z,27.30
2018-04-18T10:13:07.631Z,25.30
2018-04-18T10:15:34.621Z,26.60
2018-04-18T10:18:01.605Z,25.70
2018-04-18T10:20:28.626Z,26.40
2018-04-18T10:25:22.672Z,27.60
2018-04-18T10:27:49.685Z,24.80
2018-04-18T10:30:16.670Z,25.60
2018-04-18T10:32:44.592Z,23.10
2018-04-18T10:35:11.622Z,24.70
2018-04-18T10:37:38.618Z,25.10
2018-04-18T10:40:05.606Z,27.60
2018-04-18T10:42:32.626Z,24.40
2018-04-18T10:44:59.645Z,22.20
2018-04-18T10:47:26.628Z,23.50
2018-04-18T10:49:53.668Z,23.60
2018-04-18T10:52:21.464Z,23.40
2018-04-18T10:54:48.461Z,23.20
2018-04-18T10:57:16.320Z,24.10
2018-04-18T10:59:43.306Z,25.50
2018-04-18T11:04:37.445Z,23.00
2018-04-18T11:07:04.408Z,19.90
2018-04-18T11:09:31.401Z,23.80
2018-04-18T11:11:58.414Z,24.50
2018-04-18T11:14:25.411Z,23.10
2018-04-18T11:16:52.413Z,21.90
2018-04-18T11:19:19.463Z,21.70
2018-04-18T11:21:48.780Z,21.80
2018-04-18T11:26:54.301Z,22.60
2018-04-18T11:29:21.272Z,21.40
2018-04-18T11:31:48.257Z,20.30
2018-04-18T11:34:15.279Z,20.00
2018-04-18T11:36:43.236Z,18.20
2018-04-18T11:39:10.219Z,19.50
2018-04-18T11:41:37.240Z,20.70
2018-04-18T11:44:04.230Z,20.30
2018-04-18T11:46:31.531Z,23.80
2018-04-18T11:48:58.552Z,19.80
2018-04-18T11:51:25.539Z,20.00
2018-04-18T11:53:52.523Z,21.90
2018-04-18T11:56:19.572Z,19.20
2018-04-18T11:58:46.567Z,20.90
2018-04-18T12:01:16.515Z,21.40
2018-04-18T12:03:43.534Z,21.40
2018-04-18T12:06:10.532Z,22.20
2018-04-18T12:08:37.525Z,21.80
2018-04-18T12:11:05.355Z,21.10
2018-04-18T12:16:00.413Z,18.40
2018-04-18T12:18:27.431Z,18.60
2018-04-18T12:20:54.425Z,18.50
2018-04-18T12:23:21.426Z,17.90
2018-04-18T12:25:51.193Z,18.40
2018-04-18T12:28:16.322Z,16.60
2018-04-18T12:33:10.406Z,15.80
2018-04-18T12:35:37.400Z,14.40
2018-04-18T12:38:04.396Z,15.30
2018-04-18T12:40:31.435Z,15.80
2018-04-18T12:42:59.376Z,15.70
2018-04-18T12:45:26.366Z,14.40
2018-04-18T12:50:36.612Z,15.30
2018-04-18T12:53:03.476Z,13.80
2018-04-18T12:55:30.474Z,16.60
2018-04-18T12:57:58.409Z,15.70
2018-04-18T13:00:25.427Z,15.00
2018-04-18T13:02:53.032Z,16.20
2018-04-18T13:05:20.220Z,14.70
2018-04-18T13:07:47.773Z,14.80
2018-04-18T13:12:54.895Z,12.70
2018-04-18T13:15:21.897Z,13.80
2018-04-18T13:17:48.888Z,16.00
2018-04-18T13:20:15.926Z,15.70
2018-04-18T13:25:09.998Z,14.10
2018-04-18T13:27:37.004Z,14.30
2018-04-18T13:30:03.990Z,14.20
2018-04-18T13:32:30.979Z,14.60
2018-04-18T13:34:58.425Z,14.10
2018-04-18T13:37:25.439Z,14.00
2018-04-18T13:39:52.787Z,16.30
2018-04-18T13:42:19.817Z,15.20
2018-04-18T13:44:46.813Z,14.00
2018-04-18T13:47:13.818Z,13.50
2018-04-18T13:49:40.843Z,15.80
2018-04-18T13:52:07.842Z,14.20
2018-04-18T13:54:34.839Z,15.30
2018-04-18T13:57:01.862Z,15.30
2018-04-18T13:59:28.854Z,14.70
2018-04-18T14:01:56.692Z,13.40
2018-04-18T14:04:23.716Z,14.40
2018-04-18T14:06:50.701Z,13.80
2018-04-18T14:09:17.681Z,14.00
2018-04-18T14:11:44.691Z,15.40
2018-04-18T14:14:11.665Z,14.60
2018-04-18T14:16:38.655Z,14.90
2018-04-18T14:19:06.376Z,14.80
2018-04-18T14:21:33.346Z,15.70
2018-04-18T14:24:00.332Z,18.50
2018-04-18T14:26:28.087Z,14.70
2018-04-18T14:28:55.113Z,14.30
2018-04-18T14:31:22.112Z,14.90
2018-04-18T14:36:27.642Z,14.50
2018-04-18T14:38:54.679Z,14.30
2018-04-18T14:41:21.670Z,14.40
2018-04-18T14:43:48.667Z,14.90
2018-04-18T14:46:15.697Z,14.50
2018-04-18T14:48:42.706Z,14.50
2018-04-18T14:51:09.684Z,14.10
2018-04-18T14:53:37.682Z,14.70
2018-04-18T14:56:04.669Z,15.50
2018-04-18T14:58:31.660Z,14.50
2018-04-18T15:00:58.685Z,14.60
2018-04-18T15:03:27.525Z,14.10
2018-04-18T15:08:21.624Z,14.60
2018-04-18T15:10:48.656Z,14.50
2018-04-18T15:13:15.616Z,14.20
2018-04-18T15:15:42.648Z,14.30
2018-04-18T15:20:36.708Z,14.50
2018-04-18T15:23:03.755Z,14.60
2018-04-18T15:25:30.750Z,14.70
2018-04-18T15:27:57.768Z,15.10
2018-04-18T15:30:24.759Z,14.20
2018-04-18T15:32:52.757Z,14.20
2018-04-18T15:35:19.772Z,14.30
2018-04-18T15:37:49.516Z,14.20
2018-04-18T15:40:16.992Z,14.30
2018-04-18T15:42:43.865Z,14.20
2018-04-18T15:45:11.398Z,14.60
2018-04-18T15:47:38.376Z,14.30
2018-04-18T15:50:06.234Z,15.40
2018-04-18T15:52:33.258Z,14.00
2018-04-18T15:57:27.322Z,14.40
2018-04-18T16:02:33.071Z,12.90
2018-04-18T16:05:01.036Z,13.40
2018-04-18T16:07:28.052Z,13.30
2018-04-18T16:09:55.362Z,14.30
2018-04-18T16:12:22.378Z,14.50
2018-04-18T16:14:49.355Z,13.80
2018-04-18T16:17:16.334Z,13.50
2018-04-18T16:19:43.347Z,14.10
2018-04-18T16:22:10.324Z,14.20
2018-04-18T16:24:37.311Z,14.00
2018-04-18T16:27:04.358Z,14.20
2018-04-18T16:32:21.275Z,14.50
2018-04-18T16:34:48.251Z,14.70
2018-04-18T16:37:15.230Z,14.20
2018-04-18T16:39:45.579Z,14.30
2018-04-18T16:42:12.563Z,14.40
2018-04-18T16:44:39.546Z,15.50
2018-04-18T16:47:06.559Z,15.50
2018-04-18T16:49:33.542Z,15.80
2018-04-18T16:52:00.535Z,16.00
2018-04-18T16:54:27.552Z,15.80
2018-04-18T16:56:55.471Z,16.80
2018-04-18T16:59:23.256Z,16.30
2018-04-18T17:01:51.088Z,17.40
2018-04-18T17:04:18.064Z,17.80
2018-04-18T17:06:46.066Z,18.20
2018-04-18T17:09:13.038Z,17.90
2018-04-18T17:11:40.868Z,18.30
2018-04-18T17:14:08.679Z,18.10
2018-04-18T17:16:36.434Z,17.90
2018-04-18T17:19:03.413Z,18.40
2018-04-18T17:21:32.799Z,18.50
2018-04-18T17:23:59.753Z,18.90
2018-04-18T17:26:26.744Z,18.50
2018-04-18T17:28:53.731Z,18.50
2018-04-18T17:31:20.760Z,18.50
2018-04-18T17:33:47.737Z,18.60
2018-04-18T17:36:14.719Z,18.60
2018-04-18T17:38:41.743Z,18.80
2018-04-18T17:41:08.735Z,18.60
2018-04-18T17:43:40.532Z,18.40
2018-04-18T17:46:08.391Z,18.40
2018-04-18T17:48:36.356Z,18.60
2018-04-18T17:51:03.328Z,18.90
2018-04-18T17:56:09.294Z,19.50
2018-04-18T17:58:37.174Z,20.00
2018-04-18T18:01:04.886Z,19.80
2018-04-18T18:05:58.983Z,20.80
2018-04-18T18:08:25.958Z,20.60
2018-04-18T18:10:52.945Z,21.10
2018-04-18T18:13:22.892Z,21.50
2018-04-18T18:15:52.235Z,21.50
2018-04-18T18:20:55.458Z,22.50
2018-04-18T18:23:22.451Z,22.80
2018-04-18T18:25:49.453Z,22.70
2018-04-18T18:28:16.488Z,23.10
2018-04-18T18:30:43.470Z,23.30
2018-04-18T18:33:10.452Z,23.10
2018-04-18T18:35:37.691Z,23.80
2018-04-18T18:38:04.690Z,24.60
2018-04-18T18:40:31.618Z,24.10
2018-04-18T18:42:59.040Z,23.90
2018-04-18T18:45:26.018Z,24.60
2018-04-18T18:47:52.991Z,24.90
2018-04-18T18:52:47.089Z,24.80
2018-04-18T18:55:14.070Z,25.10
2018-04-18T18:57:41.081Z,25.70
2018-04-18T19:00:08.085Z,26.00
2018-04-18T19:02:35.079Z,26.00
2018-04-18T19:05:02.687Z,27.30
2018-04-18T19:07:35.174Z,26.70
2018-04-18T19:12:38.416Z,25.60
2018-04-18T19:15:05.550Z,28.10
2018-04-18T19:17:32.561Z,27.90
2018-04-18T19:20:00.044Z,27.70
2018-04-18T19:22:27.045Z,27.60
2018-04-18T19:24:54.077Z,27.50
2018-04-18T19:27:21.132Z,28.00
2018-04-18T19:29:50.189Z,28.60
2018-04-18T19:32:17.996Z,30.00
2018-04-18T19:34:45.055Z,29.90
2018-04-18T19:39:52.199Z,29.90
2018-04-18T19:44:57.234Z,29.00
2018-04-18T19:52:42.793Z,29.10
2018-04-18T19:55:12.102Z,29.80
2018-04-18T19:57:39.899Z,29.70
2018-04-18T20:00:11.120Z,30.40
2018-04-18T20:05:17.194Z,30.30
2018-04-18T20:07:44.136Z,30.40
2018-04-18T20:10:14.417Z,30.30
2018-04-18T20:12:41.990Z,30.00
2018-04-18T20:17:56.012Z,30.80
2018-04-18T20:20:23.031Z,31.10
2018-04-18T20:22:50.606Z,30.40
2018-04-18T20:27:49.503Z,32.30
2018-04-18T20:30:16.587Z,31.90
2018-04-18T20:32:43.734Z,31.90
2018-04-18T20:35:10.806Z,32.30
2018-04-18T20:37:37.810Z,32.60
2018-04-18T20:40:04.842Z,32.60
2018-04-18T20:44:58.965Z,32.10
2018-04-18T20:47:25.991Z,33.30
2018-04-18T20:52:25.391Z,33.50
2018-04-18T20:57:43.605Z,34.20
2018-04-18T21:00:08.784Z,34.50
2018-04-18T21:02:35.868Z,34.50
2018-04-18T21:05:02.898Z,34.70
2018-04-18T21:10:18.495Z,34.40
2018-04-18T21:12:45.659Z,35.20
2018-04-18T21:15:18.067Z,34.90
2018-04-18T21:17:46.438Z,35.90
2018-04-18T21:20:13.479Z,35.50
2018-04-18T21:22:40.596Z,35.40
2018-04-18T21:27:40.209Z,34.50
2018-04-18T21:30:11.901Z,35.00
2018-04-18T21:32:36.687Z,35.50
2018-04-18T21:35:06.763Z,35.00
2018-04-18T21:37:33.985Z,34.30
2018-04-18T21:40:01.189Z,34.40
2018-04-18T21:45:08.650Z,35.20
2018-04-18T21:47:35.638Z,34.60
2018-04-18T21:50:04.017Z,36.60
2018-04-18T21:55:09.343Z,35.80
2018-04-18T21:57:36.360Z,36.10
2018-04-18T22:00:03.421Z,35.20
2018-04-18T22:02:30.392Z,34.70
2018-04-18T22:04:58.327Z,34.90
2018-04-18T22:07:25.336Z,35.20
2018-04-18T22:09:52.327Z,35.60
2018-04-18T22:12:20.706Z,36.10
2018-04-18T22:17:21.119Z,36.00
2018-04-18T22:22:29.495Z,37.30
2018-04-18T22:24:56.801Z,36.70
2018-04-18T22:27:23.980Z,36.90
2018-04-18T22:29:52.904Z,36.50
2018-04-18T22:32:20.226Z,36.80
2018-04-18T22:34:47.276Z,37.40
2018-04-18T22:37:14.397Z,37.90
2018-04-18T22:39:41.744Z,38.80
2018-04-18T22:42:08.990Z,39.10
2018-04-18T22:44:35.983Z,39.10
2018-04-18T22:47:03.056Z,39.10
2018-04-18T22:49:30.023Z,39.30
2018-04-18T22:51:58.953Z,39.20
2018-04-18T22:54:25.972Z,39.00
2018-04-18T22:56:52.976Z,39.20
2018-04-18T22:59:20.023Z,39.00
2018-04-18T23:01:47.021Z,38.80
2018-04-18T23:04:14.273Z,39.10
2018-04-18T23:06:42.258Z,39.70
2018-04-18T23:09:09.268Z,40.40
2018-04-18T23:14:03.771Z,41.30
2018-04-18T23:16:31.051Z,42.30
2018-04-18T23:21:25.805Z,40.80
2018-04-18T23:23:52.981Z,40.10
2018-04-18T23:26:22.446Z,40.60
2018-04-18T23:28:49.770Z,41.30
2018-04-18T23:31:17.800Z,41.00
2018-04-18T23:41:30.744Z,40.80
2018-04-18T23:43:56.850Z,40.60
2018-04-18T23:46:23.858Z,41.10
2018-04-18T23:48:50.929Z,40.80
2018-04-18T23:51:17.882Z,41.20
2018-04-18T23:53:44.883Z,40.60
2018-04-18T23:56:11.941Z,40.40
2018-04-18T23:58:38.976Z,39.80
